createdAt,value
2018-05-23T00:00:09.224Z,3.60
2018-05-23T00:02:36.812Z,3.43
2018-05-23T00:05:04.374Z,3.50
2018-05-23T00:07:31.950Z,3.53
2018-05-23T00:09:59.501Z,3.13
2018-05-23T00:12:27.059Z,3.40
2018-05-23T00:14:54.638Z,3.40
2018-05-23T00:17:22.197Z,3.60
2018-05-23T00:19:49.774Z,3.13
2018-05-23T00:22:17.333Z,3.37
2018-05-23T00:24:45.685Z,3.40
2018-05-23T00:27:13.237Z,3.23
2018-05-23T00:29:40.814Z,2.80
2018-05-23T00:32:08.369Z,2.53
2018-05-23T00:34:35.950Z,3.17
2018-05-23T00:37:03.501Z,2.97
2018-05-23T00:39:31.854Z,3.60
2018-05-23T00:41:59.414Z,2.90
2018-05-23T00:44:27.001Z,2.70
2018-05-23T00:46:55.331Z,2.60
2018-05-23T00:49:22.909Z,3.70
2018-05-23T00:51:50.467Z,2.80
2018-05-23T00:54:18.051Z,2.93
2018-05-23T00:56:45.609Z,3.40
2018-05-23T00:59:13.186Z,3.30
2018-05-23T01:01:41.514Z,3.13
2018-05-23T01:04:09.094Z,3.30
2018-05-23T01:06:37.443Z,2.57
2018-05-23T01:09:05.799Z,2.87
2018-05-23T01:11:33.341Z,3.50
2018-05-23T01:14:00.937Z,2.73
2018-05-23T01:16:28.495Z,2.93
2018-05-23T01:18:56.198Z,2.97
2018-05-23T01:21:23.754Z,2.57
2018-05-23T01:23:51.332Z,2.77
2018-05-23T01:26:18.885Z,2.40
2018-05-23T01:28:47.235Z,2.60
2018-05-23T01:31:14.790Z,3.80
2018-05-23T01:33:42.351Z,3.03
2018-05-23T01:36:09.933Z,3.20
2018-05-23T01:38:38.257Z,3.10
2018-05-23T01:41:05.834Z,2.30
2018-05-23T01:43:33.385Z,3.00
2018-05-23T01:46:00.962Z,3.60
2018-05-23T01:48:40.266Z,3.53
2018-05-23T01:51:07.841Z,2.80
2018-05-23T01:53:35.401Z,3.63
2018-05-23T01:56:02.983Z,3.30
2018-05-23T01:58:30.534Z,3.10
2018-05-23T02:00:58.109Z,3.07
2018-05-23T02:03:25.664Z,3.00
2018-05-23T02:05:53.245Z,2.83
2018-05-23T02:08:21.570Z,3.43
2018-05-23T02:10:49.165Z,3.13
2018-05-23T02:13:18.856Z,3.33
2018-05-23T02:15:48.556Z,2.70
2018-05-23T02:18:16.109Z,3.27
2018-05-23T02:20:43.689Z,2.57
2018-05-23T02:23:11.244Z,2.77
2018-05-23T02:25:38.824Z,3.43
2018-05-23T02:28:06.381Z,3.67
2018-05-23T02:30:34.723Z,2.80
2018-05-23T02:33:02.274Z,3.13
2018-05-23T02:35:29.862Z,3.50
2018-05-23T02:37:57.425Z,3.13
2018-05-23T02:40:25.006Z,3.30
2018-05-23T02:42:53.330Z,3.00
2018-05-23T02:45:20.914Z,3.40
2018-05-23T02:47:48.477Z,3.00
2018-05-23T02:50:16.050Z,3.40
2018-05-23T02:52:43.674Z,2.93
2018-05-23T02:55:11.224Z,2.70
2018-05-23T02:57:38.801Z,3.30
2018-05-23T03:00:06.367Z,4.07
2018-05-23T03:02:33.952Z,3.17
2018-05-23T03:05:02.413Z,4.10
2018-05-23T03:07:30.689Z,3.23
2018-05-23T03:09:58.245Z,2.93
2018-05-23T03:12:25.824Z,3.13
2018-05-23T03:14:53.377Z,2.93
2018-05-23T03:17:21.727Z,3.53
2018-05-23T03:19:49.289Z,2.90
2018-05-23T03:22:16.870Z,3.40
2018-05-23T03:24:44.433Z,3.17
2018-05-23T03:27:12.785Z,3.67
2018-05-23T03:29:40.349Z,3.90
2018-05-23T03:32:07.929Z,3.27
2018-05-23T03:34:36.250Z,4.60
2018-05-23T03:37:03.825Z,3.50
2018-05-23T03:39:31.386Z,5.27
2018-05-23T03:41:58.971Z,5.17
2018-05-23T03:44:26.525Z,4.70
2018-05-23T03:46:54.173Z,5.60
2018-05-23T03:49:21.686Z,5.00
2018-05-23T03:51:49.265Z,9.63
2018-05-23T03:54:16.818Z,5.57
2018-05-23T03:56:44.401Z,4.90
2018-05-23T03:59:11.961Z,5.00
2018-05-23T04:01:51.371Z,16.03
2018-05-23T04:04:32.289Z,8.03
2018-05-23T04:07:20.590Z,9.60
2018-05-23T04:09:48.220Z,4.33
2018-05-23T04:12:15.737Z,3.73
2018-05-23T04:14:44.057Z,5.60
2018-05-23T04:17:11.629Z,5.10
2018-05-23T04:19:39.190Z,4.30
2018-05-23T04:22:06.774Z,4.30
2018-05-23T04:24:34.337Z,3.60
2018-05-23T04:27:01.926Z,4.00
2018-05-23T04:29:29.481Z,3.80
2018-05-23T04:31:57.045Z,4.10
2018-05-23T04:34:24.626Z,3.60
2018-05-23T04:36:52.947Z,4.80
2018-05-23T04:39:20.582Z,3.73
2018-05-23T04:41:48.097Z,4.83
2018-05-23T04:44:15.670Z,4.57
2018-05-23T04:46:44.005Z,6.60
2018-05-23T04:49:11.582Z,4.07
2018-05-23T04:51:39.133Z,3.53
2018-05-23T04:54:06.758Z,3.97
2018-05-23T04:56:35.057Z,5.83
2018-05-23T04:59:02.719Z,4.43
2018-05-23T05:01:31.000Z,5.53
2018-05-23T05:03:58.582Z,4.10
2018-05-23T05:06:26.146Z,4.17
2018-05-23T05:08:53.726Z,3.53
2018-05-23T05:11:22.050Z,5.30
2018-05-23T05:13:49.666Z,5.07
2018-05-23T05:16:17.202Z,5.83
2018-05-23T05:18:44.781Z,4.43
2018-05-23T05:21:12.333Z,3.10
2018-05-23T05:23:40.685Z,4.07
2018-05-23T05:26:08.237Z,4.77
2018-05-23T05:28:35.835Z,5.43
2018-05-23T05:31:03.427Z,5.20
2018-05-23T05:33:31.006Z,5.90
2018-05-23T05:35:58.565Z,5.17
2018-05-23T05:38:26.153Z,4.93
2018-05-23T05:40:53.705Z,4.50
2018-05-23T05:43:21.270Z,4.83
2018-05-23T05:45:48.845Z,4.87
2018-05-23T05:48:16.394Z,5.53
2018-05-23T05:50:44.734Z,5.10
2018-05-23T05:53:12.293Z,4.30
2018-05-23T05:55:39.877Z,4.27
2018-05-23T05:58:07.487Z,5.80
2018-05-23T06:00:35.090Z,4.87
2018-05-23T06:03:02.645Z,4.63
2018-05-23T06:05:30.228Z,3.97
2018-05-23T06:07:58.551Z,9.23
2018-05-23T06:10:26.130Z,8.83
2018-05-23T06:12:53.801Z,6.73
2018-05-23T06:15:21.379Z,6.07
2018-05-23T06:17:48.934Z,4.90
2018-05-23T06:20:16.533Z,7.00
2018-05-23T06:22:44.085Z,8.80
2018-05-23T06:25:11.666Z,10.70
2018-05-23T06:27:39.221Z,5.23
2018-05-23T06:30:06.801Z,5.57
2018-05-23T06:32:34.365Z,5.90
2018-05-23T06:35:01.955Z,5.93
2018-05-23T06:37:29.511Z,5.37
2018-05-23T06:39:57.098Z,7.57
2018-05-23T06:42:24.657Z,5.10
2018-05-23T06:44:52.258Z,3.20
2018-05-23T06:47:19.814Z,4.10
2018-05-23T06:49:47.374Z,4.50
2018-05-23T06:52:14.961Z,4.70
2018-05-23T06:54:42.518Z,4.23
2018-05-23T06:57:10.097Z,3.50
2018-05-23T06:59:38.418Z,3.93
2018-05-23T07:02:06.009Z,4.83
2018-05-23T07:04:33.565Z,3.77
2018-05-23T07:07:01.150Z,4.47
2018-05-23T07:09:28.730Z,3.67
2018-05-23T07:11:56.303Z,3.30
2018-05-23T07:14:23.859Z,5.40
2018-05-23T07:16:51.435Z,4.40
2018-05-23T07:19:18.994Z,5.07
2018-05-23T07:21:46.578Z,4.80
2018-05-23T07:24:14.130Z,4.40
2018-05-23T07:26:41.709Z,4.43
2018-05-23T07:29:09.275Z,4.47
2018-05-23T07:31:37.707Z,4.47
2018-05-23T07:34:05.195Z,4.37
2018-05-23T07:36:32.777Z,4.40
2018-05-23T07:39:00.329Z,3.43
2018-05-23T07:41:28.679Z,3.80
2018-05-23T07:43:56.237Z,4.50
2018-05-23T07:46:23.817Z,3.70
2018-05-23T07:48:51.371Z,4.53
2018-05-23T07:51:18.950Z,5.87
2018-05-23T07:53:46.505Z,4.20
2018-05-23T07:56:14.061Z,3.97
2018-05-23T07:58:42.405Z,4.73
2018-05-23T08:01:09.960Z,4.27
2018-05-23T08:03:37.541Z,5.80
2018-05-23T08:06:05.100Z,4.23
2018-05-23T08:08:32.681Z,4.40
2018-05-23T08:11:00.242Z,5.00
2018-05-23T08:13:27.830Z,5.90
2018-05-23T08:15:55.393Z,4.73
2018-05-23T08:18:22.977Z,4.13
2018-05-23T08:20:50.539Z,4.90
2018-05-23T08:23:18.129Z,5.10
2018-05-23T08:25:46.449Z,5.03
2018-05-23T08:28:14.043Z,5.03
2018-05-23T08:30:41.605Z,4.53
2018-05-23T08:33:09.185Z,5.23
2018-05-23T08:35:37.505Z,5.00
2018-05-23T08:38:05.082Z,5.10
2018-05-23T08:40:32.639Z,5.63
2018-05-23T08:43:00.225Z,5.67
2018-05-23T08:45:27.788Z,6.40
2018-05-23T08:47:56.135Z,6.00
2018-05-23T08:50:23.685Z,6.20
2018-05-23T08:52:51.270Z,5.80
2018-05-23T08:55:18.827Z,5.57
2018-05-23T08:57:46.422Z,5.20
2018-05-23T09:00:13.981Z,6.10
2018-05-23T09:02:41.696Z,5.87
2018-05-23T09:05:09.162Z,6.73
2018-05-23T09:07:36.713Z,6.27
2018-05-23T09:10:04.294Z,6.33
2018-05-23T09:12:32.645Z,6.20
2018-05-23T09:15:00.217Z,5.50
2018-05-23T09:17:27.773Z,7.03
2018-05-23T09:19:55.353Z,6.10
2018-05-23T09:22:23.674Z,6.10
2018-05-23T09:24:51.254Z,6.40
2018-05-23T09:27:18.805Z,5.67
2018-05-23T09:29:46.395Z,5.53
2018-05-23T09:32:13.970Z,5.63
2018-05-23T09:34:41.554Z,6.03
2018-05-23T09:37:09.109Z,6.07
2018-05-23T09:39:36.700Z,5.63
2018-05-23T09:42:04.249Z,5.83
2018-05-23T09:44:31.826Z,5.93
2018-05-23T09:47:00.150Z,6.23
2018-05-23T09:49:28.506Z,6.67
2018-05-23T09:51:56.083Z,6.83
2018-05-23T09:54:23.665Z,5.73
2018-05-23T09:56:51.230Z,6.03
2018-05-23T09:59:18.810Z,5.33
2018-05-23T10:01:46.359Z,5.70
2018-05-23T10:04:13.947Z,6.40
2018-05-23T10:06:41.510Z,7.10
2018-05-23T10:09:09.090Z,6.70
2018-05-23T10:11:37.415Z,6.43
2018-05-23T10:14:04.999Z,6.00
2018-05-23T10:16:32.582Z,5.50
2018-05-23T10:19:00.968Z,5.90
2018-05-23T10:21:28.562Z,5.63
2018-05-23T10:23:56.152Z,5.67
2018-05-23T10:26:23.720Z,6.40
2018-05-23T10:28:51.293Z,5.70
2018-05-23T10:31:19.643Z,5.80
2018-05-23T10:33:47.202Z,5.57
2018-05-23T10:36:14.790Z,5.73
2018-05-23T10:38:42.374Z,5.17
2018-05-23T10:41:09.957Z,4.90
2018-05-23T10:43:37.514Z,5.57
2018-05-23T10:46:05.137Z,4.90
2018-05-23T10:48:33.453Z,5.43
2018-05-23T10:51:01.034Z,5.13
2018-05-23T10:53:28.592Z,5.70
2018-05-23T10:55:56.175Z,5.30
2018-05-23T10:58:23.729Z,5.23
2018-05-23T11:00:51.313Z,5.40
2018-05-23T11:03:18.869Z,5.30
2018-05-23T11:05:47.392Z,5.80
2018-05-23T11:08:14.956Z,6.70
2018-05-23T11:10:42.529Z,7.20
2018-05-23T11:13:10.082Z,7.50
2018-05-23T11:15:38.426Z,7.23
2018-05-23T11:18:05.986Z,5.60
2018-05-23T11:20:33.573Z,6.30
2018-05-23T11:23:01.130Z,6.17
2018-05-23T11:25:28.719Z,5.20
2018-05-23T11:27:56.284Z,5.30
2018-05-23T11:30:23.853Z,5.27
2018-05-23T11:32:51.448Z,6.17
2018-05-23T11:35:19.009Z,6.37
2018-05-23T11:37:46.673Z,5.20
2018-05-23T11:40:14.231Z,5.20
2018-05-23T11:42:41.810Z,4.77
2018-05-23T11:45:09.362Z,4.80
2018-05-23T11:47:36.938Z,5.60
2018-05-23T11:50:04.488Z,5.70
2018-05-23T11:52:32.096Z,5.23
2018-05-23T11:55:00.422Z,4.67
2018-05-23T11:57:28.005Z,5.63
2018-05-23T11:59:55.571Z,6.93
2018-05-23T12:02:23.149Z,5.40
2018-05-23T12:04:51.478Z,5.60
2018-05-23T12:07:19.066Z,5.10
2018-05-23T12:09:46.621Z,4.43
2018-05-23T12:12:14.862Z,5.07
2018-05-23T12:14:43.018Z,5.80
2018-05-23T12:17:12.618Z,5.50
2018-05-23T12:19:41.533Z,5.53
2018-05-23T12:22:10.653Z,5.07
2018-05-23T12:24:38.271Z,5.20
2018-05-23T12:27:05.899Z,5.00
2018-05-23T12:29:34.233Z,5.47
2018-05-23T12:32:01.814Z,5.20
2018-05-23T12:34:29.377Z,4.77
2018-05-23T12:36:56.954Z,5.33
2018-05-23T12:39:25.269Z,4.90
2018-05-23T12:41:53.628Z,5.40
2018-05-23T12:44:21.181Z,5.27
2018-05-23T12:46:48.762Z,6.00
2018-05-23T12:49:16.321Z,4.90
2018-05-23T12:51:44.188Z,5.30
2018-05-23T12:54:11.747Z,4.70
2018-05-23T12:56:39.308Z,4.10
2018-05-23T12:59:06.885Z,4.50
2018-05-23T13:01:34.447Z,4.10
2018-05-23T13:04:02.799Z,4.27
2018-05-23T13:06:30.354Z,5.13
2018-05-23T13:08:57.935Z,4.93
2018-05-23T13:11:25.501Z,5.40
2018-05-23T13:13:53.077Z,4.60
2018-05-23T13:16:22.228Z,4.57
2018-05-23T13:18:54.722Z,4.83
2018-05-23T13:21:30.708Z,5.20
2018-05-23T13:23:59.819Z,5.30
2018-05-23T13:26:27.578Z,4.80
2018-05-23T13:28:55.924Z,4.10
2018-05-23T13:31:23.498Z,5.10
2018-05-23T13:33:51.074Z,4.67
2018-05-23T13:36:18.625Z,4.40
2018-05-23T13:38:46.203Z,5.00
2018-05-23T13:41:14.522Z,4.60
2018-05-23T13:43:42.097Z,4.40
2018-05-23T13:46:09.658Z,4.43
2018-05-23T13:48:37.237Z,5.17
2018-05-23T13:51:04.793Z,4.87
2018-05-23T13:53:32.369Z,4.73
2018-05-23T13:56:00.688Z,5.00
2018-05-23T13:58:28.273Z,5.20
2018-05-23T14:00:55.842Z,5.70
2018-05-23T14:03:23.426Z,4.47
2018-05-23T14:05:51.770Z,5.00
2018-05-23T14:08:19.341Z,5.33
2018-05-23T14:10:46.894Z,5.23
2018-05-23T14:13:14.480Z,5.00
2018-05-23T14:15:42.827Z,4.40
2018-05-23T14:18:10.387Z,4.10
2018-05-23T14:20:37.965Z,5.00
2018-05-23T14:23:06.286Z,4.53
2018-05-23T14:25:33.866Z,5.50
2018-05-23T14:28:01.418Z,4.80
2018-05-23T14:30:28.992Z,4.57
2018-05-23T14:32:57.315Z,4.67
2018-05-23T14:35:24.894Z,5.23
2018-05-23T14:37:52.446Z,4.80
2018-05-23T14:40:20.026Z,5.10
2018-05-23T14:42:47.678Z,5.13
2018-05-23T14:45:15.254Z,5.23
2018-05-23T14:47:42.810Z,5.30
2018-05-23T14:50:10.420Z,5.40
2018-05-23T14:52:37.966Z,5.07
2018-05-23T14:55:06.314Z,5.20
2018-05-23T14:57:33.892Z,5.17
2018-05-23T15:00:01.515Z,4.70
2018-05-23T15:02:29.152Z,3.97
2018-05-23T15:04:56.678Z,4.83
2018-05-23T15:07:25.012Z,5.03
2018-05-23T15:09:52.606Z,5.37
2018-05-23T15:12:20.162Z,4.53
2018-05-23T15:14:47.743Z,5.93
2018-05-23T15:17:16.061Z,5.50
2018-05-23T15:19:43.676Z,5.47
2018-05-23T15:22:11.201Z,5.70
2018-05-23T15:24:38.785Z,4.80
2018-05-23T15:27:07.128Z,5.17
2018-05-23T15:29:34.714Z,5.90
2018-05-23T15:32:02.283Z,5.30
2018-05-23T15:34:30.667Z,6.43
2018-05-23T15:36:58.987Z,5.37
2018-05-23T15:39:26.539Z,5.47
2018-05-23T15:41:54.122Z,5.40
2018-05-23T15:44:21.678Z,5.70
2018-05-23T15:46:49.258Z,5.87
2018-05-23T15:49:16.817Z,5.83
2018-05-23T15:51:44.397Z,5.57
2018-05-23T15:54:12.721Z,5.70
2018-05-23T15:56:40.292Z,5.27
2018-05-23T15:59:07.846Z,5.90
2018-05-23T16:01:35.427Z,5.00
2018-05-23T16:04:02.982Z,6.07
2018-05-23T16:06:30.566Z,5.50
2018-05-23T16:08:58.893Z,5.00
2018-05-23T16:11:26.476Z,5.93
2018-05-23T16:13:54.035Z,5.53
2018-05-23T16:16:21.623Z,5.97
2018-05-23T16:18:49.948Z,5.90
2018-05-23T16:21:17.526Z,5.90
2018-05-23T16:23:45.092Z,5.87
2018-05-23T16:26:12.683Z,4.90
2018-05-23T16:28:41.028Z,5.20
2018-05-23T16:31:08.614Z,5.90
2018-05-23T16:33:36.942Z,5.63
2018-05-23T16:36:04.735Z,6.13
2018-05-23T16:38:32.301Z,5.37
2018-05-23T16:40:59.881Z,5.80
2018-05-23T16:43:27.430Z,5.40
2018-05-23T16:45:55.778Z,5.90
2018-05-23T16:48:23.333Z,4.87
2018-05-23T16:50:50.909Z,6.10
2018-05-23T16:53:18.465Z,5.13
2018-05-23T16:55:46.050Z,6.90
2018-05-23T16:58:13.607Z,6.13
2018-05-23T17:00:41.177Z,7.37
2018-05-23T17:03:09.526Z,5.80
2018-05-23T17:05:37.082Z,5.83
2018-05-23T17:08:04.667Z,6.10
2018-05-23T17:10:32.986Z,6.07
2018-05-23T17:13:00.554Z,5.73
2018-05-23T17:15:28.115Z,5.97
2018-05-23T17:17:55.696Z,6.07
2018-05-23T17:20:23.254Z,6.47
2018-05-23T17:22:50.839Z,6.77
2018-05-23T17:25:18.402Z,6.37
2018-05-23T17:27:45.986Z,6.83
2018-05-23T17:30:13.546Z,5.87
2018-05-23T17:32:41.124Z,5.50
2018-05-23T17:35:08.681Z,6.97
2018-05-23T17:37:36.259Z,5.93
2018-05-23T17:40:03.806Z,6.40
2018-05-23T17:42:31.386Z,7.47
2018-05-23T17:44:58.941Z,5.93
2018-05-23T17:47:26.541Z,5.90
2018-05-23T17:49:54.294Z,6.37
2018-05-23T17:52:22.665Z,6.87
2018-05-23T17:54:51.011Z,7.63
2018-05-23T17:57:18.658Z,6.07
2018-05-23T17:59:46.208Z,6.60
2018-05-23T18:02:13.787Z,6.13
2018-05-23T18:04:41.343Z,7.67
2018-05-23T18:07:08.938Z,6.17
2018-05-23T18:09:38.559Z,5.83
2018-05-23T18:12:06.200Z,6.17
2018-05-23T18:14:33.788Z,6.33
2018-05-23T18:17:01.421Z,6.63
2018-05-23T18:19:29.773Z,5.27
2018-05-23T18:21:57.751Z,5.20
2018-05-23T18:24:25.402Z,5.40
2018-05-23T18:26:52.965Z,5.60
2018-05-23T18:29:20.713Z,5.37
2018-05-23T18:31:48.190Z,5.63
2018-05-23T18:34:15.811Z,5.53
2018-05-23T18:36:43.379Z,5.67
2018-05-23T18:39:10.969Z,5.80
2018-05-23T18:41:38.545Z,6.07
2018-05-23T18:44:07.014Z,6.40
2018-05-23T18:46:34.597Z,7.37
2018-05-23T18:49:02.984Z,6.37
2018-05-23T18:51:30.538Z,6.17
2018-05-23T18:53:58.891Z,6.80
2018-05-23T18:56:27.246Z,6.37
2018-05-23T18:58:54.833Z,6.63
2018-05-23T19:01:22.394Z,6.27
2018-05-23T19:03:50.743Z,6.67
2018-05-23T19:06:18.300Z,6.10
2018-05-23T19:08:46.169Z,7.20
2018-05-23T19:11:14.938Z,6.40
2018-05-23T19:13:42.855Z,6.33
2018-05-23T19:16:11.190Z,7.17
2018-05-23T19:18:38.914Z,6.30
2018-05-23T19:21:06.470Z,6.13
2018-05-23T19:23:34.059Z,6.80
2018-05-23T19:26:01.765Z,6.27
2018-05-23T19:28:29.354Z,7.37
2018-05-23T19:30:56.937Z,6.87
2018-05-23T19:33:24.601Z,6.53
2018-05-23T19:35:53.262Z,6.23
2018-05-23T19:38:21.662Z,7.67
2018-05-23T19:40:49.243Z,6.67
2018-05-23T19:43:17.643Z,6.30
2018-05-23T19:45:46.382Z,6.43
2018-05-23T19:48:15.274Z,7.27
2018-05-23T19:50:43.206Z,7.20
2018-05-23T19:53:10.933Z,6.80
2018-05-23T19:55:40.482Z,6.93
2018-05-23T19:58:08.122Z,6.63
2018-05-23T20:00:35.707Z,7.40
2018-05-23T20:03:03.440Z,7.10
2018-05-23T20:05:31.142Z,6.87
2018-05-23T20:08:00.333Z,7.40
2018-05-23T20:10:30.597Z,7.57
2018-05-23T20:12:58.772Z,7.13
2018-05-23T20:15:26.817Z,7.40
2018-05-23T20:17:55.031Z,7.03
2018-05-23T20:20:22.927Z,6.33
2018-05-23T20:22:51.614Z,7.77
2018-05-23T20:25:19.767Z,7.53
2018-05-23T20:27:49.488Z,7.57
2018-05-23T20:30:17.126Z,8.20
2018-05-23T20:32:45.319Z,7.93
2018-05-23T20:35:13.485Z,7.80
2018-05-23T20:37:41.866Z,7.23
2018-05-23T20:40:10.213Z,8.07
2018-05-23T20:42:38.769Z,7.93
2018-05-23T20:45:06.345Z,7.53
2018-05-23T20:47:34.801Z,7.20
2018-05-23T20:50:02.354Z,7.00
2018-05-23T20:52:29.980Z,7.73
2018-05-23T20:54:58.158Z,7.40
2018-05-23T20:57:26.617Z,7.97
2018-05-23T20:59:54.262Z,8.40
2018-05-23T21:02:21.988Z,7.40
2018-05-23T21:04:49.593Z,8.07
2018-05-23T21:07:18.519Z,8.20
2018-05-23T21:09:47.293Z,8.40
2018-05-23T21:12:14.993Z,7.43
2018-05-23T21:14:42.559Z,7.90
2018-05-23T21:17:10.221Z,8.07
2018-05-23T21:19:37.992Z,8.43
2018-05-23T21:22:06.390Z,7.80
2018-05-23T21:24:36.006Z,8.60
2018-05-23T21:27:03.653Z,7.90
2018-05-23T21:29:33.440Z,8.50
2018-05-23T21:32:02.943Z,7.60
2018-05-23T21:34:31.064Z,8.00
2018-05-23T21:36:58.641Z,7.90
2018-05-23T21:39:26.970Z,7.97
2018-05-23T21:41:54.546Z,7.87
2018-05-23T21:44:22.109Z,7.40
2018-05-23T21:46:49.694Z,7.57
2018-05-23T21:49:18.019Z,8.00
2018-05-23T21:51:45.601Z,7.90
2018-05-23T21:54:13.178Z,8.07
2018-05-23T21:56:40.770Z,8.87
2018-05-23T21:59:08.323Z,7.70
2018-05-23T22:01:36.674Z,7.40
2018-05-23T22:04:04.225Z,8.10
2018-05-23T22:06:31.805Z,8.60
2018-05-23T22:09:00.125Z,8.20
2018-05-23T22:11:27.718Z,7.60
2018-05-23T22:13:55.282Z,7.80
2018-05-23T22:16:22.841Z,7.13
2018-05-23T22:18:50.423Z,7.33
2018-05-23T22:21:17.981Z,7.80
2018-05-23T22:23:45.562Z,7.87
2018-05-23T22:26:13.131Z,8.20
2018-05-23T22:28:40.719Z,8.30
2018-05-23T22:31:08.273Z,8.17
2018-05-23T22:33:35.854Z,7.33
2018-05-23T22:36:03.507Z,7.10
2018-05-23T22:38:31.790Z,7.50
2018-05-23T22:40:59.353Z,7.83
2018-05-23T22:46:00.911Z,8.23
2018-05-23T22:48:28.493Z,8.20
2018-05-23T22:50:56.053Z,8.87
2018-05-23T22:53:24.394Z,6.87
2018-05-23T22:55:52.031Z,8.30
2018-05-23T22:58:19.609Z,6.63
2018-05-23T23:00:47.166Z,7.50
2018-05-23T23:03:14.746Z,7.13
2018-05-23T23:05:42.307Z,7.87
2018-05-23T23:08:09.900Z,7.57
2018-05-23T23:10:37.459Z,8.07
2018-05-23T23:13:05.072Z,8.10
2018-05-23T23:15:32.621Z,7.20
2018-05-23T23:18:00.201Z,8.50
2018-05-23T23:20:27.759Z,8.37
2018-05-23T23:22:55.349Z,8.50
2018-05-23T23:25:22.912Z,8.00
2018-05-23T23:27:50.501Z,8.10
2018-05-23T23:30:18.072Z,8.33
2018-05-23T23:32:46.397Z,7.40
2018-05-23T23:35:13.979Z,8.63
2018-05-23T23:37:41.544Z,8.67
2018-05-23T23:40:09.133Z,7.50
2018-05-23T23:42:36.693Z,7.60
2018-05-23T23:45:04.274Z,8.13
2018-05-23T23:47:31.830Z,8.30
2018-05-23T23:49:59.419Z,8.73
2018-05-23T23:52:27.757Z,8.10
2018-05-23T23:54:55.337Z,8.17
2018-05-23T23:57:22.897Z,9.50
2018-05-23T23:59:51.427Z,7.53
